createdAt,value
2019-03-27T00:01:08.517Z,1.65
2019-03-27T00:02:44.023Z,1.70
2019-03-27T00:04:19.542Z,1.50
2019-03-27T00:05:55.323Z,1.80
2019-03-27T00:07:31.115Z,1.70
2019-03-27T00:09:07.173Z,1.50
2019-03-27T00:10:43.013Z,1.90
2019-03-27T00:12:18.525Z,1.70
2019-03-27T00:13:54.050Z,1.50
2019-03-27T00:15:29.573Z,1.60
2019-03-27T00:17:05.088Z,1.72
2019-03-27T00:18:40.853Z,1.87
2019-03-27T00:20:17.251Z,1.80
2019-03-27T00:21:52.807Z,1.80
2019-03-27T00:23:28.320Z,1.60
2019-03-27T00:25:05.321Z,1.85
2019-03-27T00:26:40.857Z,1.82
2019-03-27T00:28:16.372Z,2.00
2019-03-27T00:29:52.951Z,1.70
2019-03-27T00:31:28.478Z,1.72
2019-03-27T00:33:03.989Z,1.57
2019-03-27T00:34:39.500Z,2.08
2019-03-27T00:36:15.026Z,1.60
2019-03-27T00:37:50.539Z,1.80
2019-03-27T00:39:26.058Z,1.90
2019-03-27T00:41:01.643Z,1.55
2019-03-27T00:42:38.392Z,1.45
2019-03-27T00:44:14.254Z,1.70
2019-03-27T00:45:49.789Z,1.60
2019-03-27T00:47:25.308Z,1.60
2019-03-27T00:49:01.804Z,1.62
2019-03-27T00:50:37.323Z,1.67
2019-03-27T00:52:12.836Z,1.62
2019-03-27T00:53:48.360Z,1.63
2019-03-27T00:55:25.074Z,1.80
2019-03-27T00:57:00.603Z,1.75
2019-03-27T00:58:36.118Z,1.70
2019-03-27T01:00:21.831Z,1.55
2019-03-27T01:01:57.357Z,1.70
2019-03-27T01:03:33.224Z,1.53
2019-03-27T01:05:08.745Z,1.50
2019-03-27T01:06:44.276Z,1.70
2019-03-27T01:08:19.789Z,1.73
2019-03-27T01:09:55.312Z,1.70
2019-03-27T01:11:30.850Z,1.80
2019-03-27T01:13:06.616Z,2.00
2019-03-27T01:14:42.140Z,1.90
2019-03-27T01:16:17.658Z,1.70
2019-03-27T01:17:53.212Z,1.80
2019-03-27T01:19:28.697Z,1.57
2019-03-27T01:21:04.711Z,1.60
2019-03-27T01:22:40.259Z,1.70
2019-03-27T01:24:15.782Z,1.90
2019-03-27T01:25:51.318Z,1.87
2019-03-27T01:27:26.843Z,1.70
2019-03-27T01:29:02.358Z,1.90
2019-03-27T01:30:37.526Z,2.20
2019-03-27T01:32:12.975Z,1.87
2019-03-27T01:33:48.738Z,1.70
2019-03-27T01:35:24.264Z,1.70
2019-03-27T01:37:00.074Z,1.80
2019-03-27T01:38:35.590Z,1.70
2019-03-27T01:40:11.356Z,1.80
2019-03-27T01:41:46.876Z,1.40
2019-03-27T01:43:22.395Z,1.90
2019-03-27T01:44:59.296Z,1.90
2019-03-27T01:46:34.870Z,1.80
2019-03-27T01:48:10.386Z,1.57
2019-03-27T01:49:45.898Z,1.80
2019-03-27T01:51:21.415Z,1.60
2019-03-27T01:52:57.189Z,1.60
2019-03-27T01:54:32.699Z,1.60
2019-03-27T01:56:08.214Z,1.82
2019-03-27T01:57:43.732Z,1.90
2019-03-27T01:59:19.245Z,1.90
2019-03-27T02:00:54.761Z,1.60
2019-03-27T02:02:30.538Z,1.90
2019-03-27T02:04:06.044Z,1.70
2019-03-27T02:05:41.567Z,1.90
2019-03-27T02:07:17.091Z,1.83
2019-03-27T02:08:52.607Z,1.60
2019-03-27T02:10:29.263Z,2.00
2019-03-27T02:12:04.777Z,1.82
2019-03-27T02:13:40.285Z,1.95
2019-03-27T02:15:15.623Z,2.00
2019-03-27T02:16:51.076Z,1.77
2019-03-27T02:18:26.585Z,1.77
2019-03-27T02:20:02.397Z,1.98
2019-03-27T02:21:38.173Z,2.08
2019-03-27T02:23:13.686Z,2.30
2019-03-27T02:24:49.220Z,1.80
2019-03-27T02:26:24.747Z,1.90
2019-03-27T02:28:00.273Z,1.90
2019-03-27T02:29:35.779Z,1.70
2019-03-27T02:31:11.294Z,2.00
2019-03-27T02:32:46.812Z,2.00
2019-03-27T02:34:22.332Z,1.90
2019-03-27T02:35:58.735Z,2.10
2019-03-27T02:37:34.182Z,2.20
2019-03-27T02:39:09.709Z,1.83
2019-03-27T02:40:45.237Z,2.00
2019-03-27T02:42:21.072Z,2.07
2019-03-27T02:43:56.226Z,2.10
2019-03-27T02:45:31.322Z,2.30
2019-03-27T02:47:06.777Z,2.30
2019-03-27T02:48:42.290Z,2.00
2019-03-27T02:50:17.805Z,2.12
2019-03-27T02:51:52.996Z,2.50
2019-03-27T02:53:28.714Z,2.37
2019-03-27T02:55:06.080Z,2.30
2019-03-27T02:56:41.611Z,2.20
2019-03-27T02:58:17.114Z,2.50
2019-03-27T02:59:52.632Z,2.13
2019-03-27T03:01:28.143Z,2.37
2019-03-27T03:03:03.676Z,2.50
2019-03-27T03:04:39.302Z,2.00
2019-03-27T03:06:14.784Z,2.58
2019-03-27T03:07:50.306Z,2.17
2019-03-27T03:09:25.820Z,2.50
2019-03-27T03:11:01.587Z,2.50
2019-03-27T03:12:37.378Z,2.60
2019-03-27T03:14:12.871Z,2.43
2019-03-27T03:15:48.030Z,2.30
2019-03-27T03:17:23.495Z,2.23
2019-03-27T03:18:58.986Z,2.40
2019-03-27T03:20:35.470Z,2.67
2019-03-27T03:22:11.008Z,2.52
2019-03-27T03:23:46.532Z,2.50
2019-03-27T03:25:21.701Z,2.00
2019-03-27T03:26:57.401Z,2.30
2019-03-27T03:28:32.913Z,2.53
2019-03-27T03:30:10.576Z,2.33
2019-03-27T03:31:46.100Z,2.13
2019-03-27T03:33:21.619Z,2.70
2019-03-27T03:34:57.130Z,2.60
2019-03-27T03:36:32.693Z,2.50
2019-03-27T03:38:08.222Z,2.60
2019-03-27T03:39:43.740Z,2.37
2019-03-27T03:41:19.285Z,2.77
2019-03-27T03:42:54.805Z,2.70
2019-03-27T03:44:30.321Z,2.50
2019-03-27T03:46:05.850Z,2.50
2019-03-27T03:47:41.373Z,2.45
2019-03-27T03:49:16.955Z,2.52
2019-03-27T03:50:55.253Z,2.57
2019-03-27T03:52:31.714Z,2.37
2019-03-27T03:54:07.795Z,2.70
2019-03-27T03:55:43.574Z,2.63
2019-03-27T03:57:20.602Z,2.52
2019-03-27T03:58:57.281Z,2.60
2019-03-27T04:00:34.297Z,2.55
2019-03-27T04:02:09.825Z,2.50
2019-03-27T04:03:47.674Z,2.47
2019-03-27T04:05:23.824Z,3.03
2019-03-27T04:06:59.605Z,2.60
2019-03-27T04:08:35.139Z,2.60
2019-03-27T04:10:10.654Z,2.70
2019-03-27T04:11:46.173Z,2.83
2019-03-27T04:13:21.706Z,2.70
2019-03-27T04:14:57.227Z,2.60
2019-03-27T04:16:32.751Z,2.73
2019-03-27T04:18:08.341Z,2.47
2019-03-27T04:19:43.854Z,2.60
2019-03-27T04:21:19.378Z,2.87
2019-03-27T04:22:54.906Z,2.60
2019-03-27T04:24:30.424Z,2.60
2019-03-27T04:26:10.404Z,2.90
2019-03-27T04:27:42.381Z,3.30
2019-03-27T04:29:17.817Z,3.10
2019-03-27T04:30:53.339Z,2.85
2019-03-27T04:32:29.162Z,3.20
2019-03-27T04:34:05.824Z,3.68
2019-03-27T04:35:41.412Z,3.30
2019-03-27T04:37:16.944Z,3.50
2019-03-27T04:38:52.483Z,3.40
2019-03-27T04:40:27.999Z,3.43
2019-03-27T04:42:03.950Z,3.70
2019-03-27T04:43:39.485Z,3.60
2019-03-27T04:45:18.289Z,3.77
2019-03-27T04:46:53.832Z,3.45
2019-03-27T04:48:29.370Z,3.90
2019-03-27T04:50:07.964Z,4.16
2019-03-27T04:51:43.821Z,4.12
2019-03-27T04:53:19.348Z,4.90
2019-03-27T04:54:55.214Z,4.35
2019-03-27T04:56:30.734Z,4.77
2019-03-27T04:58:06.272Z,4.40
2019-03-27T04:59:42.281Z,4.13
2019-03-27T05:01:17.796Z,4.72
2019-03-27T05:02:54.311Z,4.70
2019-03-27T05:04:30.101Z,5.05
2019-03-27T05:06:05.682Z,5.13
2019-03-27T05:07:41.211Z,5.00
2019-03-27T05:09:16.754Z,4.83
2019-03-27T05:10:52.260Z,4.90
2019-03-27T05:12:27.801Z,5.53
2019-03-27T05:14:03.333Z,6.20
2019-03-27T05:15:38.847Z,5.90
2019-03-27T05:17:14.707Z,6.53
2019-03-27T05:18:50.254Z,7.03
2019-03-27T05:20:28.700Z,6.67
2019-03-27T05:22:03.304Z,7.00
2019-03-27T05:23:39.098Z,6.70
2019-03-27T05:25:14.629Z,7.07
2019-03-27T05:26:50.148Z,6.85
2019-03-27T05:28:25.755Z,6.55
2019-03-27T05:30:01.304Z,6.10
2019-03-27T05:31:36.820Z,6.50
2019-03-27T05:33:12.672Z,6.37
2019-03-27T05:34:48.183Z,5.47
2019-03-27T05:36:23.792Z,5.30
2019-03-27T05:37:59.304Z,4.63
2019-03-27T05:39:34.924Z,5.20
2019-03-27T05:41:10.512Z,5.10
2019-03-27T05:42:59.748Z,5.10
2019-03-27T05:44:23.272Z,4.62
2019-03-27T05:45:58.797Z,5.17
2019-03-27T05:47:34.311Z,4.90
2019-03-27T05:49:09.858Z,4.90
2019-03-27T05:50:45.390Z,4.20
2019-03-27T05:52:21.205Z,4.20
2019-03-27T05:53:56.736Z,4.25
2019-03-27T05:55:32.262Z,4.45
2019-03-27T05:57:07.791Z,4.80
2019-03-27T05:58:43.394Z,4.33
2019-03-27T06:00:19.082Z,4.20
2019-03-27T06:01:54.969Z,4.87
2019-03-27T06:03:30.778Z,4.83
2019-03-27T06:05:07.348Z,5.40
2019-03-27T06:06:43.193Z,4.97
2019-03-27T06:08:18.739Z,4.97
2019-03-27T06:09:54.286Z,4.90
2019-03-27T06:11:29.806Z,5.45
2019-03-27T06:13:05.353Z,5.90
2019-03-27T06:14:40.883Z,5.80
2019-03-27T06:16:16.732Z,5.50
2019-03-27T06:17:52.517Z,5.83
2019-03-27T06:19:28.048Z,5.80
2019-03-27T06:21:03.886Z,6.10
2019-03-27T06:22:39.422Z,5.37
2019-03-27T06:24:15.257Z,5.90
2019-03-27T06:25:50.783Z,5.80
2019-03-27T06:27:26.299Z,6.30
2019-03-27T06:29:01.840Z,6.58
2019-03-27T06:30:37.361Z,6.07
2019-03-27T06:32:12.897Z,6.17
2019-03-27T06:33:48.439Z,6.13
2019-03-27T06:35:23.955Z,6.97
2019-03-27T06:36:59.782Z,7.47
2019-03-27T06:38:35.309Z,7.28
2019-03-27T06:40:11.060Z,6.87
2019-03-27T06:41:46.581Z,6.90
2019-03-27T06:43:22.124Z,6.67
2019-03-27T06:44:57.857Z,6.75
2019-03-27T06:46:35.061Z,7.42
2019-03-27T06:48:10.607Z,6.20
2019-03-27T06:49:46.122Z,6.30
2019-03-27T06:51:24.972Z,6.43
2019-03-27T06:52:59.667Z,5.90
2019-03-27T06:54:35.201Z,5.60
2019-03-27T06:56:10.719Z,6.33
2019-03-27T06:57:46.227Z,5.57
2019-03-27T06:59:21.757Z,5.83
2019-03-27T07:00:57.268Z,5.28
2019-03-27T07:02:33.114Z,5.65
2019-03-27T07:04:10.808Z,5.77
2019-03-27T07:05:45.867Z,6.03
2019-03-27T07:07:21.388Z,5.20
2019-03-27T07:08:56.917Z,4.87
2019-03-27T07:10:32.434Z,4.72
2019-03-27T07:12:20.529Z,5.30
2019-03-27T07:13:45.436Z,5.73
2019-03-27T07:15:20.972Z,4.90
2019-03-27T07:16:56.534Z,5.43
2019-03-27T07:18:40.021Z,5.30
2019-03-27T07:20:09.624Z,4.67
2019-03-27T07:21:45.145Z,4.70
2019-03-27T07:23:20.675Z,4.87
2019-03-27T07:24:56.224Z,4.70
2019-03-27T07:26:31.741Z,4.90
2019-03-27T07:28:07.263Z,4.25
2019-03-27T07:29:42.794Z,3.70
2019-03-27T07:31:18.656Z,4.30
2019-03-27T07:32:54.199Z,4.15
2019-03-27T07:34:29.809Z,4.22
2019-03-27T07:36:05.585Z,4.00
2019-03-27T07:37:41.120Z,4.20
2019-03-27T07:39:16.642Z,4.17
2019-03-27T07:40:52.159Z,4.30
2019-03-27T07:42:29.030Z,4.30
2019-03-27T07:44:04.596Z,4.57
2019-03-27T07:45:40.113Z,4.50
2019-03-27T07:47:15.639Z,4.40
2019-03-27T07:48:54.078Z,4.55
2019-03-27T07:50:28.957Z,4.85
2019-03-27T07:52:04.490Z,4.57
2019-03-27T07:53:40.001Z,4.77
2019-03-27T07:55:19.654Z,4.70
2019-03-27T07:56:52.739Z,4.60
2019-03-27T07:58:28.266Z,4.37
2019-03-27T08:00:05.188Z,4.73
2019-03-27T08:01:40.727Z,4.55
2019-03-27T08:03:16.240Z,4.97
2019-03-27T08:04:51.992Z,4.58
2019-03-27T08:06:27.517Z,4.92
2019-03-27T08:08:03.903Z,4.90
2019-03-27T08:09:42.165Z,5.00
2019-03-27T08:11:17.749Z,4.83
2019-03-27T08:12:53.253Z,5.20
2019-03-27T08:14:28.783Z,5.53
2019-03-27T08:16:04.297Z,5.60
2019-03-27T08:17:41.309Z,5.23
2019-03-27T08:19:16.847Z,5.50
2019-03-27T08:20:52.880Z,5.22
2019-03-27T08:22:28.388Z,6.05
2019-03-27T08:24:03.917Z,6.00
2019-03-27T08:25:39.519Z,5.87
2019-03-27T08:27:15.039Z,5.87
2019-03-27T08:28:51.567Z,5.43
2019-03-27T08:30:27.155Z,5.60
2019-03-27T08:32:02.675Z,5.60
2019-03-27T08:33:38.196Z,6.10
2019-03-27T08:35:15.226Z,6.13
2019-03-27T08:36:50.709Z,5.67
2019-03-27T08:38:26.232Z,6.43
2019-03-27T08:40:01.765Z,6.40
2019-03-27T08:41:37.733Z,5.92
2019-03-27T08:43:21.094Z,5.27
2019-03-27T08:44:50.553Z,6.63
2019-03-27T08:46:26.059Z,5.90
2019-03-27T08:48:01.864Z,6.20
2019-03-27T08:49:37.395Z,6.00
2019-03-27T08:51:12.908Z,5.65
2019-03-27T08:52:48.423Z,6.50
2019-03-27T08:54:24.997Z,5.92
2019-03-27T08:56:00.756Z,6.20
2019-03-27T08:57:36.277Z,6.12
2019-03-27T08:59:11.788Z,6.05
2019-03-27T09:00:51.581Z,6.10
2019-03-27T09:02:27.101Z,5.97
2019-03-27T09:04:02.655Z,5.78
2019-03-27T09:05:38.178Z,5.65
2019-03-27T09:07:13.710Z,6.60
2019-03-27T09:08:49.241Z,6.30
2019-03-27T09:10:25.448Z,6.20
2019-03-27T09:12:00.969Z,5.90
2019-03-27T09:13:36.493Z,5.97
2019-03-27T09:15:12.267Z,5.83
2019-03-27T09:16:47.793Z,5.87
2019-03-27T09:18:23.319Z,7.13
2019-03-27T09:19:58.846Z,8.80
2019-03-27T09:21:34.365Z,7.70
2019-03-27T09:23:10.855Z,6.37
2019-03-27T09:24:46.383Z,5.23
2019-03-27T09:26:21.906Z,6.00
2019-03-27T09:27:57.837Z,6.00
2019-03-27T09:29:33.366Z,5.35
2019-03-27T09:31:08.902Z,4.72
2019-03-27T09:32:44.419Z,4.87
2019-03-27T09:34:19.946Z,5.10
2019-03-27T09:35:56.467Z,5.10
2019-03-27T09:37:31.989Z,5.03
2019-03-27T09:39:10.213Z,5.10
2019-03-27T09:40:46.023Z,4.53
2019-03-27T09:42:21.563Z,4.30
2019-03-27T09:43:58.702Z,4.10
2019-03-27T09:45:34.222Z,4.28
2019-03-27T09:47:09.742Z,3.30
2019-03-27T09:48:45.262Z,3.93
2019-03-27T09:50:20.795Z,4.00
2019-03-27T09:51:57.174Z,4.07
2019-03-27T09:53:32.692Z,3.65
2019-03-27T09:55:08.305Z,4.03
2019-03-27T09:56:44.888Z,3.67
2019-03-27T09:58:20.421Z,3.57
2019-03-27T09:59:55.959Z,3.73
2019-03-27T10:01:31.482Z,4.13
2019-03-27T10:03:06.993Z,4.40
2019-03-27T10:04:42.529Z,4.20
2019-03-27T10:06:18.038Z,3.60
2019-03-27T10:07:53.560Z,3.83
2019-03-27T10:09:29.081Z,3.53
2019-03-27T10:11:04.680Z,5.50
2019-03-27T10:12:40.221Z,5.42
2019-03-27T10:14:15.738Z,5.73
2019-03-27T10:15:51.282Z,5.47
2019-03-27T10:17:27.054Z,5.00
2019-03-27T10:19:02.578Z,4.37
2019-03-27T10:20:38.110Z,4.17
2019-03-27T10:22:14.109Z,4.22
2019-03-27T10:23:49.623Z,3.93
2019-03-27T10:25:25.193Z,4.37
2019-03-27T10:27:00.865Z,5.07
2019-03-27T10:28:37.439Z,4.20
2019-03-27T10:30:13.379Z,4.53
2019-03-27T10:31:48.903Z,4.20
2019-03-27T10:33:24.418Z,6.07
2019-03-27T10:35:00.484Z,12.70
2019-03-27T10:36:36.028Z,9.95
2019-03-27T10:38:11.547Z,6.28
2019-03-27T10:39:47.083Z,5.15
2019-03-27T10:41:22.607Z,4.50
2019-03-27T10:42:58.138Z,7.60
2019-03-27T10:44:33.938Z,6.10
2019-03-27T10:46:09.467Z,4.20
2019-03-27T10:47:44.988Z,3.95
2019-03-27T10:49:20.505Z,4.20
2019-03-27T10:50:56.027Z,4.30
2019-03-27T10:52:31.552Z,3.80
2019-03-27T10:54:07.109Z,3.83
2019-03-27T10:55:42.640Z,4.10
2019-03-27T10:57:18.149Z,4.30
2019-03-27T10:58:54.637Z,4.27
2019-03-27T11:00:30.970Z,4.23
2019-03-27T11:02:06.485Z,3.77
2019-03-27T11:03:42.010Z,4.15
2019-03-27T11:05:17.543Z,3.70
2019-03-27T11:06:53.075Z,4.17
2019-03-27T11:08:28.592Z,3.73
2019-03-27T11:10:05.719Z,4.00
2019-03-27T11:11:41.261Z,3.62
2019-03-27T11:13:16.780Z,3.80
2019-03-27T11:14:52.320Z,3.43
2019-03-27T11:16:27.824Z,3.33
2019-03-27T11:18:03.349Z,3.53
2019-03-27T11:19:38.872Z,3.30
2019-03-27T11:21:14.405Z,3.27
2019-03-27T11:22:49.920Z,3.10
2019-03-27T11:24:25.441Z,2.90
2019-03-27T11:26:01.962Z,2.80
2019-03-27T11:27:37.488Z,3.10
2019-03-27T11:29:13.007Z,2.75
2019-03-27T11:30:48.644Z,3.05
2019-03-27T11:32:25.775Z,3.03
2019-03-27T11:34:02.270Z,3.13
2019-03-27T11:35:37.791Z,3.10
2019-03-27T11:37:13.315Z,3.35
2019-03-27T11:38:48.828Z,3.50
2019-03-27T11:40:24.358Z,3.37
2019-03-27T11:42:00.927Z,3.73
2019-03-27T11:43:36.582Z,3.40
2019-03-27T11:45:12.454Z,4.05
2019-03-27T11:46:47.983Z,3.62
2019-03-27T11:48:23.501Z,3.00
2019-03-27T11:49:59.065Z,3.37
2019-03-27T11:51:34.915Z,3.50
2019-03-27T11:53:10.423Z,3.63
2019-03-27T11:54:45.941Z,3.80
2019-03-27T11:56:21.829Z,3.50
2019-03-27T11:57:57.345Z,3.40
2019-03-27T11:59:33.720Z,3.93
2019-03-27T12:01:09.259Z,3.80
2019-03-27T12:02:44.783Z,3.55
2019-03-27T12:04:20.307Z,3.50
2019-03-27T12:05:55.845Z,3.70
2019-03-27T12:07:31.356Z,3.80
2019-03-27T12:09:08.319Z,3.67
2019-03-27T12:10:43.837Z,3.70
2019-03-27T12:12:19.680Z,3.43
2019-03-27T12:13:55.196Z,3.50
2019-03-27T12:15:40.482Z,4.00
2019-03-27T12:17:16.004Z,3.60
2019-03-27T12:18:51.523Z,4.10
2019-03-27T12:20:27.040Z,4.20
2019-03-27T12:22:02.580Z,5.00
2019-03-27T12:23:38.090Z,4.70
2019-03-27T12:25:14.748Z,4.15
2019-03-27T12:26:50.269Z,4.60
2019-03-27T12:28:25.791Z,4.40
2019-03-27T12:30:01.334Z,4.50
2019-03-27T12:31:36.866Z,5.80
2019-03-27T12:33:12.392Z,5.50
2019-03-27T12:34:47.909Z,6.00
2019-03-27T12:36:23.445Z,7.45
2019-03-27T12:37:58.969Z,10.40
2019-03-27T12:39:35.746Z,7.20
2019-03-27T12:41:11.305Z,5.83
2019-03-27T12:42:46.824Z,5.30
2019-03-27T12:44:22.350Z,4.97
2019-03-27T12:45:57.869Z,5.20
2019-03-27T12:47:33.411Z,7.23
2019-03-27T12:49:08.937Z,8.07
2019-03-27T12:50:44.629Z,6.40
2019-03-27T12:52:20.282Z,5.30
2019-03-27T12:53:55.794Z,5.00
2019-03-27T12:55:31.632Z,4.70
2019-03-27T12:57:07.217Z,4.60
2019-03-27T12:58:42.748Z,6.30
2019-03-27T13:00:18.403Z,8.03
2019-03-27T13:01:53.935Z,6.10
2019-03-27T13:03:29.455Z,6.60
2019-03-27T13:05:07.473Z,6.07
2019-03-27T13:06:43.077Z,6.87
2019-03-27T13:08:18.601Z,6.25
2019-03-27T13:09:54.113Z,7.15
2019-03-27T13:11:29.654Z,5.67
2019-03-27T13:13:05.169Z,5.10
2019-03-27T13:14:40.687Z,5.60
2019-03-27T13:16:16.216Z,5.42
2019-03-27T13:17:51.746Z,4.87
2019-03-27T13:19:27.259Z,5.67
2019-03-27T13:21:02.789Z,6.03
2019-03-27T13:22:38.780Z,6.27
2019-03-27T13:24:14.647Z,5.47
2019-03-27T13:25:50.166Z,5.53
2019-03-27T13:27:25.697Z,5.57
2019-03-27T13:29:01.236Z,5.33
2019-03-27T13:30:36.756Z,4.97
2019-03-27T13:32:12.304Z,4.97
2019-03-27T13:33:50.371Z,5.30
2019-03-27T13:35:25.036Z,5.40
2019-03-27T13:37:00.562Z,5.67
2019-03-27T13:38:36.247Z,5.50
2019-03-27T13:40:12.679Z,5.40
2019-03-27T13:41:55.800Z,4.97
2019-03-27T13:43:31.278Z,5.77
2019-03-27T13:45:09.191Z,5.90
2019-03-27T13:46:45.221Z,5.83
2019-03-27T13:48:20.711Z,5.87
2019-03-27T13:49:57.467Z,5.60
2019-03-27T13:51:40.305Z,5.67
2019-03-27T13:53:10.250Z,5.17
2019-03-27T13:54:45.765Z,5.13
2019-03-27T13:56:21.286Z,5.63
2019-03-27T13:57:57.616Z,5.70
2019-03-27T13:59:33.132Z,6.08
2019-03-27T14:01:09.175Z,5.60
2019-03-27T14:02:45.866Z,5.90
2019-03-27T14:04:21.393Z,5.40
2019-03-27T14:05:57.709Z,5.92
2019-03-27T14:07:33.233Z,5.77
2019-03-27T14:09:09.390Z,5.75
2019-03-27T14:10:44.990Z,5.72
2019-03-27T14:12:20.516Z,6.87
2019-03-27T14:13:56.067Z,6.97
2019-03-27T14:15:31.593Z,6.33
2019-03-27T14:17:07.129Z,5.85
2019-03-27T14:18:42.614Z,5.83
2019-03-27T14:20:19.267Z,5.90
2019-03-27T14:21:55.358Z,5.50
2019-03-27T14:23:30.993Z,6.90
2019-03-27T14:25:11.244Z,8.18
2019-03-27T14:26:46.770Z,6.67
2019-03-27T14:28:22.617Z,5.70
2019-03-27T14:29:58.489Z,7.30
2019-03-27T14:31:34.014Z,7.92
2019-03-27T14:33:09.583Z,7.60
2019-03-27T14:34:45.097Z,7.55
2019-03-27T14:36:20.971Z,9.03
2019-03-27T14:37:56.961Z,8.23
2019-03-27T14:39:32.470Z,7.47
2019-03-27T14:41:07.989Z,7.10
2019-03-27T14:42:43.512Z,6.78
2019-03-27T14:44:19.031Z,7.20
2019-03-27T14:45:54.550Z,6.43
2019-03-27T14:47:30.085Z,7.10
2019-03-27T14:49:05.676Z,6.62
2019-03-27T14:50:41.218Z,6.03
2019-03-27T14:52:17.054Z,6.27
2019-03-27T14:53:52.577Z,6.77
2019-03-27T14:55:28.132Z,7.10
2019-03-27T14:57:03.984Z,7.40
2019-03-27T14:58:39.506Z,7.50
2019-03-27T15:00:14.860Z,7.90
2019-03-27T15:01:50.272Z,7.97
2019-03-27T15:03:26.699Z,7.83
2019-03-27T15:05:01.870Z,7.97
2019-03-27T15:06:37.053Z,8.10
2019-03-27T15:08:12.138Z,8.20
2019-03-27T15:09:47.563Z,9.43
2019-03-27T15:11:22.663Z,9.10
2019-03-27T15:12:58.119Z,9.07
2019-03-27T15:14:33.548Z,9.10
2019-03-27T15:16:08.646Z,8.93
2019-03-27T15:17:44.109Z,8.70
2019-03-27T15:19:19.270Z,8.10
2019-03-27T15:20:54.720Z,8.07
2019-03-27T15:22:30.417Z,8.10
2019-03-27T15:24:05.507Z,8.43
2019-03-27T15:25:40.595Z,8.10
2019-03-27T15:27:15.688Z,8.33
2019-03-27T15:28:51.264Z,9.07
2019-03-27T15:30:26.396Z,8.70
2019-03-27T15:32:01.848Z,8.17
2019-03-27T15:33:37.378Z,8.40
2019-03-27T15:35:12.542Z,9.03
2019-03-27T15:36:48.624Z,7.70
2019-03-27T15:38:24.094Z,6.97
2019-03-27T15:40:00.935Z,6.10
2019-03-27T15:41:36.526Z,6.60
2019-03-27T15:43:12.063Z,7.15
2019-03-27T15:44:49.798Z,7.33
2019-03-27T15:46:24.470Z,8.07
2019-03-27T15:48:01.028Z,6.77
2019-03-27T15:49:36.198Z,6.70
2019-03-27T15:51:11.643Z,6.43
2019-03-27T15:52:46.824Z,7.05
2019-03-27T15:54:22.275Z,6.23
2019-03-27T15:55:57.438Z,6.10
2019-03-27T15:57:32.894Z,6.70
2019-03-27T15:59:08.434Z,6.20
2019-03-27T16:00:44.010Z,6.53
2019-03-27T16:02:19.531Z,6.87
2019-03-27T16:03:55.067Z,6.37
2019-03-27T16:05:31.126Z,6.00
2019-03-27T16:07:06.676Z,6.42
2019-03-27T16:08:42.103Z,7.30
2019-03-27T16:10:18.513Z,7.23
2019-03-27T16:11:54.112Z,7.47
2019-03-27T16:13:30.532Z,7.17
2019-03-27T16:15:08.087Z,7.73
2019-03-27T16:16:56.234Z,9.18
2019-03-27T16:18:20.823Z,8.40
2019-03-27T16:19:56.367Z,7.63
2019-03-27T16:21:32.884Z,7.67
2019-03-27T16:23:08.403Z,7.50
2019-03-27T16:24:43.925Z,9.23
2019-03-27T16:26:19.110Z,8.50
2019-03-27T16:27:54.562Z,7.77
2019-03-27T16:29:31.327Z,8.00
2019-03-27T16:31:07.029Z,6.80
2019-03-27T16:32:42.622Z,6.42
2019-03-27T16:34:18.234Z,6.40
2019-03-27T16:35:53.771Z,7.07
2019-03-27T16:37:29.301Z,6.97
2019-03-27T16:39:06.785Z,8.30
2019-03-27T16:40:46.587Z,8.27
2019-03-27T16:42:21.662Z,8.17
2019-03-27T16:43:57.126Z,8.37
2019-03-27T16:45:32.642Z,8.03
2019-03-27T16:47:08.170Z,8.03
2019-03-27T16:48:43.716Z,7.83
2019-03-27T16:50:18.884Z,11.48
2019-03-27T16:51:56.435Z,13.77
2019-03-27T16:53:31.604Z,12.87
2019-03-27T16:55:08.130Z,14.13
2019-03-27T16:56:43.248Z,16.40
2019-03-27T16:58:18.702Z,15.77
2019-03-27T16:59:54.234Z,14.63
2019-03-27T17:01:29.774Z,16.00
2019-03-27T17:03:05.496Z,14.30
2019-03-27T17:04:41.046Z,13.22
2019-03-27T17:06:16.573Z,12.50
2019-03-27T17:07:51.759Z,13.43
2019-03-27T17:09:27.230Z,12.30
2019-03-27T17:11:02.758Z,11.03
2019-03-27T17:12:38.275Z,9.60
2019-03-27T17:14:14.454Z,8.05
2019-03-27T17:15:50.012Z,7.43
2019-03-27T17:17:25.187Z,6.70
2019-03-27T17:19:01.703Z,6.50
2019-03-27T17:20:37.223Z,6.20
2019-03-27T17:22:19.467Z,6.75
2019-03-27T17:23:49.799Z,6.30
2019-03-27T17:25:25.224Z,6.27
2019-03-27T17:27:01.732Z,5.90
2019-03-27T17:28:36.911Z,6.22
2019-03-27T17:30:13.307Z,6.20
2019-03-27T17:31:48.835Z,6.10
2019-03-27T17:33:24.015Z,5.23
2019-03-27T17:34:59.373Z,5.97
2019-03-27T17:36:34.854Z,6.20
2019-03-27T17:38:11.067Z,6.00
2019-03-27T17:39:46.671Z,5.80
2019-03-27T17:41:21.853Z,6.25
2019-03-27T17:42:56.945Z,6.37
2019-03-27T17:44:32.411Z,5.90
2019-03-27T17:46:07.935Z,6.10
2019-03-27T17:47:43.121Z,5.90
2019-03-27T17:49:18.206Z,5.90
2019-03-27T17:50:53.301Z,5.80
2019-03-27T17:52:28.744Z,6.20
2019-03-27T17:54:04.279Z,5.73
2019-03-27T17:55:39.796Z,5.57
2019-03-27T17:57:15.272Z,5.30
2019-03-27T17:58:51.354Z,5.43
2019-03-27T18:00:46.744Z,5.33
2019-03-27T18:02:22.192Z,5.70
2019-03-27T18:03:58.026Z,5.50
2019-03-27T18:05:33.867Z,5.90
2019-03-27T18:07:09.389Z,4.90
2019-03-27T18:08:45.262Z,5.47
2019-03-27T18:10:20.777Z,5.80
2019-03-27T18:11:56.294Z,5.57
2019-03-27T18:13:32.694Z,5.33
2019-03-27T18:15:09.846Z,5.03
2019-03-27T18:16:45.371Z,5.37
2019-03-27T18:18:21.162Z,5.57
2019-03-27T18:19:56.681Z,5.57
2019-03-27T18:21:32.840Z,5.80
2019-03-27T18:23:08.375Z,6.22
2019-03-27T18:24:43.974Z,5.60
2019-03-27T18:26:19.502Z,5.50
2019-03-27T18:27:58.238Z,5.80
2019-03-27T18:29:32.837Z,5.97
2019-03-27T18:31:08.356Z,5.47
2019-03-27T18:32:44.143Z,5.50
2019-03-27T18:34:19.671Z,5.67
2019-03-27T18:35:55.457Z,5.70
2019-03-27T18:37:30.977Z,5.53
2019-03-27T18:39:08.948Z,5.43
2019-03-27T18:40:44.110Z,5.55
2019-03-27T18:42:19.569Z,5.63
2019-03-27T18:43:55.105Z,5.67
2019-03-27T18:45:30.283Z,5.70
2019-03-27T18:47:07.049Z,5.83
2019-03-27T18:48:42.214Z,5.45
2019-03-27T18:50:17.390Z,5.40
2019-03-27T18:51:52.485Z,5.73
2019-03-27T18:53:27.580Z,5.50
2019-03-27T18:55:03.009Z,5.47
2019-03-27T18:56:38.936Z,5.90
2019-03-27T18:58:14.384Z,5.83
2019-03-27T18:59:50.175Z,6.03
2019-03-27T19:01:25.966Z,5.37
2019-03-27T19:03:02.387Z,5.40
2019-03-27T19:04:37.490Z,5.77
2019-03-27T19:06:12.837Z,5.47
2019-03-27T19:07:48.286Z,5.53
2019-03-27T19:09:23.723Z,5.43
2019-03-27T19:10:58.829Z,5.53
2019-03-27T19:12:34.271Z,5.87
2019-03-27T19:14:09.781Z,5.60
2019-03-27T19:15:44.956Z,5.15
2019-03-27T19:17:20.056Z,5.13
2019-03-27T19:18:55.757Z,5.17
2019-03-27T19:20:31.548Z,5.23
2019-03-27T19:22:06.731Z,5.20
2019-03-27T19:23:41.843Z,5.12
2019-03-27T19:25:16.942Z,5.20
2019-03-27T19:26:52.644Z,5.30
2019-03-27T19:28:27.812Z,5.90
2019-03-27T19:30:03.646Z,5.65
2019-03-27T19:31:39.828Z,6.28
2019-03-27T19:33:14.919Z,6.08
2019-03-27T19:34:51.239Z,5.90
2019-03-27T19:36:26.872Z,5.67
2019-03-27T19:38:03.765Z,5.58
2019-03-27T19:39:38.942Z,5.85
2019-03-27T19:41:14.067Z,5.42
2019-03-27T19:42:49.166Z,5.70
2019-03-27T19:44:24.709Z,4.90
2019-03-27T19:45:59.898Z,5.10
2019-03-27T19:47:34.969Z,5.63
2019-03-27T19:49:11.106Z,5.23
2019-03-27T19:50:46.485Z,5.40
2019-03-27T19:52:21.686Z,5.67
2019-03-27T19:53:57.059Z,5.50
2019-03-27T19:55:33.223Z,5.67
2019-03-27T19:57:08.340Z,5.40
2019-03-27T19:58:43.891Z,5.67
2019-03-27T20:00:19.064Z,5.53
2019-03-27T20:01:54.149Z,5.53
2019-03-27T20:03:29.240Z,5.60
2019-03-27T20:05:05.887Z,5.57
2019-03-27T20:06:41.641Z,6.50
2019-03-27T20:08:17.149Z,6.95
2019-03-27T20:09:52.331Z,7.07
2019-03-27T20:11:27.466Z,6.95
2019-03-27T20:13:03.482Z,6.25
2019-03-27T20:14:38.819Z,7.10
2019-03-27T20:16:14.288Z,6.17
2019-03-27T20:17:49.810Z,6.55
2019-03-27T20:19:25.352Z,6.10
2019-03-27T20:21:00.886Z,6.60
2019-03-27T20:22:36.180Z,6.40
2019-03-27T20:24:11.288Z,6.00
2019-03-27T20:25:46.761Z,5.90
2019-03-27T20:27:22.194Z,5.90
2019-03-27T20:28:57.635Z,6.27
2019-03-27T20:30:34.151Z,6.17
2019-03-27T20:32:09.672Z,5.87
2019-03-27T20:33:44.865Z,5.87
2019-03-27T20:35:22.809Z,5.80
2019-03-27T20:36:57.541Z,5.60
2019-03-27T20:38:33.982Z,5.67
2019-03-27T20:40:09.936Z,5.57
2019-03-27T20:41:45.519Z,5.47
2019-03-27T20:43:20.724Z,5.63
2019-03-27T20:44:56.979Z,5.67
2019-03-27T20:46:33.194Z,6.30
2019-03-27T20:48:08.312Z,6.13
2019-03-27T20:49:43.748Z,5.90
2019-03-27T20:51:18.929Z,5.83
2019-03-27T20:52:54.051Z,5.97
2019-03-27T20:54:29.137Z,5.67
2019-03-27T20:56:04.232Z,5.83
2019-03-27T20:57:39.687Z,6.00
2019-03-27T20:59:18.137Z,6.15
2019-03-27T21:00:51.655Z,6.60
2019-03-27T21:02:26.761Z,5.93
2019-03-27T21:04:01.852Z,5.93
2019-03-27T21:05:36.956Z,6.40
2019-03-27T21:07:12.042Z,5.87
2019-03-27T21:08:47.154Z,6.57
2019-03-27T21:10:22.605Z,6.50
2019-03-27T21:11:58.379Z,6.00
2019-03-27T21:13:34.894Z,6.23